Time;durP1;ratioP1;P1;durP2;ratioP2;P2;SDS_P1;SDS_P2;PMS_P1;PMS_P2;Temp;Humidity;BMP_temperature;BMP_pressure;BME280_temperature;BME280_humidity;BME280_pressure;Samples;Min_cycle;Max_cycle;Signal;HPM_P1;HPM_P2
2021/05/21 00:01:37;;;;;;;25.98;14.85;;;5.30;99.90;;;;;;5053948;28;20031;-77
2021/05/21 00:04:03;;;;;;;28.58;16.50;;;5.30;99.90;;;;;;5052762;28;20115;-77
2021/05/21 00:06:29;;;;;;;33.55;18.45;;;5.30;99.90;;;;;;5054004;28;20047;-77
2021/05/21 00:08:55;;;;;;;30.85;16.63;;;5.30;99.90;;;;;;5053939;28;20108;-77
2021/05/21 00:11:20;;;;;;;22.83;12.95;;;5.30;99.90;;;;;;5052690;28;20107;-77
2021/05/21 00:13:46;;;;;;;19.95;11.98;;;5.30;99.90;;;;;;5053916;28;20055;-77
2021/05/21 00:16:12;;;;;;;22.63;13.80;;;5.30;99.90;;;;;;5053913;28;20032;-77
2021/05/21 00:18:37;;;;;;;19.67;12.68;;;5.30;99.90;;;;;;5053633;28;20094;-76
2021/05/21 00:21:03;;;;;;;24.48;13.77;;;5.30;99.90;;;;;;5052478;28;20021;-76
2021/05/21 00:23:29;;;;;;;28.88;17.45;;;5.20;99.90;;;;;;5053710;28;20021;-76
2021/05/21 00:25:54;;;;;;;31.52;17.60;;;5.10;99.90;;;;;;5053722;28;20036;-76
2021/05/21 00:28:20;;;;;;;38.55;20.73;;;5.10;99.90;;;;;;5053606;28;20033;-76
2021/05/21 00:30:46;;;;;;;44.50;22.65;;;5.10;99.90;;;;;;5052358;28;20021;-76
2021/05/21 00:33:11;;;;;;;33.38;17.52;;;5.10;99.90;;;;;;5052246;28;20386;-76
2021/05/21 00:35:37;;;;;;;25.52;14.50;;;5.10;99.90;;;;;;5053483;28;20471;-76
2021/05/21 00:38:03;;;;;;;25.33;14.70;;;5.10;99.90;;;;;;5053437;28;20033;-77
2021/05/21 00:40:29;;;;;;;22.55;14.15;;;5.10;99.90;;;;;;5052152;28;20025;-77
2021/05/21 00:42:55;;;;;;;26.90;16.05;;;5.10;99.90;;;;;;5052088;28;20104;-76
2021/05/21 00:45:20;;;;;;;28.40;16.23;;;5.10;99.90;;;;;;5052152;28;20048;-77
2021/05/21 00:47:47;;;;;;;34.72;19.05;;;5.00;99.90;;;;;;5053264;28;20051;-77
2021/05/21 00:50:13;;;;;;;33.75;19.20;;;5.00;99.90;;;;;;5053227;28;20027;-77
2021/05/21 00:52:42;;;;;;;36.47;18.65;;;5.00;99.90;;;;;;5053191;28;20029;-77
2021/05/21 00:55:10;;;;;;;29.27;15.63;;;5.10;99.90;;;;;;5051969;28;20017;-76
2021/05/21 00:57:36;;;;;;;25.70;14.93;;;5.00;99.90;;;;;;5051707;28;20116;-76
2021/05/21 01:00:04;;;;;;;26.92;15.32;;;5.00;99.90;;;;;;5051910;28;20025;-77
2021/05/21 01:02:30;;;;;;;21.85;13.63;;;4.90;99.90;;;;;;5052969;28;20032;-77
2021/05/21 01:04:55;;;;;;;17.42;11.52;;;4.80;99.90;;;;;;5052927;28;20041;-76
2021/05/21 01:07:21;;;;;;;18.02;12.25;;;4.80;99.90;;;;;;5052957;28;20052;-76
2021/05/21 01:09:47;;;;;;;18.48;10.70;;;4.80;99.90;;;;;;5053072;28;20025;-78
2021/05/21 01:12:12;;;;;;;21.67;12.68;;;4.90;99.90;;;;;;5051083;28;20064;-77
2021/05/21 01:14:52;;;;;;;21.52;13.95;;;4.90;99.90;;;;;;5051946;28;20017;-77
2021/05/21 01:17:19;;;;;;;19.33;11.60;;;4.80;99.90;;;;;;5051395;28;20430;-76
2021/05/21 01:19:45;;;;;;;23.05;12.45;;;4.70;99.90;;;;;;5052732;28;20017;-77
2021/05/21 01:22:12;;;;;;;20.08;12.68;;;4.60;99.90;;;;;;5052833;28;20051;-76
2021/05/21 01:24:39;;;;;;;23.05;12.45;;;4.60;99.90;;;;;;5051518;28;20024;-76
2021/05/21 01:27:07;;;;;;;20.92;11.77;;;4.60;99.90;;;;;;5052795;28;20503;-76
2021/05/21 01:29:34;;;;;;;23.25;12.80;;;4.60;99.90;;;;;;5051378;28;20048;-77
2021/05/21 01:32:00;;;;;;;18.88;10.82;;;4.50;99.90;;;;;;5052728;28;20040;-76
2021/05/21 01:34:25;;;;;;;19.58;11.35;;;4.50;99.90;;;;;;5052655;28;20021;-77
2021/05/21 01:36:51;;;;;;;20.02;11.18;;;4.50;99.90;;;;;;5051356;28;20052;-76
2021/05/21 01:39:17;;;;;;;15.48;10.50;;;4.50;99.90;;;;;;5052610;28;20022;-76
2021/05/21 01:41:43;;;;;;;18.50;12.30;;;4.50;99.90;;;;;;5051388;28;20040;-76
2021/05/21 01:44:11;;;;;;;21.45;12.43;;;4.50;99.90;;;;;;5051315;28;20491;-76
2021/05/21 01:46:38;;;;;;;19.35;11.32;;;4.50;99.90;;;;;;5052559;28;20501;-77
2021/05/21 01:49:04;;;;;;;19.63;11.65;;;4.60;99.90;;;;;;5051216;28;20475;-77
2021/05/21 01:51:31;;;;;;;17.85;12.48;;;4.50;99.90;;;;;;5052573;28;20029;-77
2021/05/21 01:54:16;;;;;;;18.90;11.82;;;4.50;99.90;;;;;;5052499;28;20112;-77
2021/05/21 01:56:43;;;;;;;20.95;12.80;;;4.50;99.90;;;;;;5052455;28;20475;-77
2021/05/21 01:59:09;;;;;;;19.45;12.10;;;4.50;99.90;;;;;;5052505;28;20044;-76
2021/05/21 02:01:35;;;;;;;19.90;13.27;;;4.50;99.90;;;;;;5052420;28;20025;-77
2021/05/21 02:04:02;;;;;;;25.08;13.88;;;4.40;99.90;;;;;;5051171;28;20028;-77
2021/05/21 02:06:28;;;;;;;27.80;14.73;;;4.40;99.90;;;;;;5052357;28;20017;-77
2021/05/21 02:08:54;;;;;;;23.55;16.02;;;4.30;99.90;;;;;;5051909;28;20541;-77
2021/05/21 02:11:20;;;;;;;26.25;15.90;;;4.20;99.90;;;;;;5052384;28;20022;-77
2021/05/21 02:13:46;;;;;;;25.30;15.38;;;4.20;99.90;;;;;;5051022;28;20025;-76
2021/05/21 02:16:11;;;;;;;21.17;12.60;;;4.20;99.90;;;;;;5052421;28;20083;-77
2021/05/21 02:18:38;;;;;;;21.00;12.73;;;4.20;99.90;;;;;;5052140;28;20393;-76
2021/05/21 02:21:04;;;;;;;21.95;12.40;;;4.20;99.90;;;;;;5051010;28;20020;-77
2021/05/21 02:23:30;;;;;;;21.42;11.95;;;4.20;99.90;;;;;;5053011;28;20028;-77
2021/05/21 02:25:56;;;;;;;16.95;12.25;;;4.20;99.90;;;;;;5056033;28;20100;-76
2021/05/21 02:28:22;;;;;;;21.33;12.95;;;4.20;99.90;;;;;;5054618;28;20118;-77
2021/05/21 02:30:47;;;;;;;20.60;12.82;;;4.20;99.90;;;;;;5054660;28;20363;-76
2021/05/21 02:33:13;;;;;;;17.63;12.15;;;4.20;99.90;;;;;;5054551;28;20083;-76
2021/05/21 02:35:38;;;;;;;23.30;11.85;;;4.20;99.90;;;;;;5055838;28;20025;-76
2021/05/21 02:38:04;;;;;;;21.15;12.25;;;4.20;99.90;;;;;;5055699;28;20037;-76
2021/05/21 02:40:30;;;;;;;25.63;11.80;;;4.20;99.90;;;;;;5055765;28;20021;-76
2021/05/21 02:42:57;;;;;;;19.73;11.45;;;4.20;99.90;;;;;;5055684;28;20029;-76
2021/05/21 02:45:23;;;;;;;21.73;12.77;;;4.20;99.90;;;;;;5055649;28;20056;-76
2021/05/21 02:47:49;;;;;;;22.42;12.30;;;4.20;99.90;;;;;;5055610;28;20037;-76
2021/05/21 02:50:14;;;;;;;21.15;12.52;;;4.20;99.90;;;;;;5055593;28;20525;-77
2021/05/21 02:52:40;;;;;;;20.38;12.40;;;4.30;99.90;;;;;;5055413;28;20085;-76
2021/05/21 02:55:06;;;;;;;19.77;12.48;;;4.20;99.90;;;;;;5054288;28;20028;-76
2021/05/21 02:57:32;;;;;;;22.98;12.88;;;4.30;99.90;;;;;;5053898;28;20033;-76
2021/05/21 02:59:58;;;;;;;20.80;12.40;;;4.30;99.90;;;;;;5055380;28;20383;-77
2021/05/21 03:02:24;;;;;;;20.67;13.00;;;4.30;99.90;;;;;;5067780;28;20036;-76
2021/05/21 03:04:53;;;;;;;23.48;12.40;;;4.30;99.90;;;;;;5073937;28;20115;-77
2021/05/21 03:07:19;;;;;;;23.42;12.63;;;4.30;99.90;;;;;;5075217;28;20037;-76
2021/05/21 03:09:45;;;;;;;23.67;12.43;;;4.40;99.90;;;;;;5073977;28;20025;-77
2021/05/21 03:12:11;;;;;;;23.55;11.60;;;4.40;99.90;;;;;;5069831;28;20055;-76
2021/05/21 03:14:37;;;;;;;19.20;11.95;;;4.40;99.90;;;;;;5054983;28;20033;-78
2021/05/21 03:17:04;;;;;;;14.02;10.60;;;4.30;99.90;;;;;;5054875;28;20028;-77
2021/05/21 03:19:30;;;;;;;15.77;11.02;;;4.30;99.90;;;;;;5053663;28;20475;-77
2021/05/21 03:21:55;;;;;;;14.15;9.45;;;4.30;99.90;;;;;;5053665;28;20060;-77
2021/05/21 03:24:21;;;;;;;14.18;10.70;;;4.30;99.90;;;;;;5053570;28;20017;-77
2021/05/21 03:26:47;;;;;;;17.10;9.57;;;4.40;99.90;;;;;;5054830;28;20032;-77
2021/05/21 03:29:15;;;;;;;22.13;11.35;;;4.40;99.90;;;;;;5053492;28;20032;-77
2021/05/21 03:31:42;;;;;;;16.30;10.38;;;4.50;99.90;;;;;;5053729;28;20077;-76
2021/05/21 03:34:08;;;;;;;20.45;11.40;;;4.60;99.90;;;;;;5053410;28;20017;-76
2021/05/21 03:36:34;;;;;;;19.33;12.20;;;4.70;99.90;;;;;;5052788;28;20024;-76
2021/05/21 03:39:00;;;;;;;22.25;13.27;;;4.80;99.90;;;;;;5053227;28;20380;-76
2021/05/21 03:41:26;;;;;;;15.65;11.23;;;4.80;99.90;;;;;;5053297;28;20036;-77
2021/05/21 03:43:51;;;;;;;21.70;12.20;;;4.90;99.90;;;;;;5054506;28;20021;-77
2021/05/21 03:46:17;;;;;;;19.48;12.77;;;4.90;99.90;;;;;;5053235;28;20017;-77
2021/05/21 03:48:43;;;;;;;25.08;14.65;;;5.00;99.90;;;;;;5054444;28;20098;-77
2021/05/21 03:51:09;;;;;;;22.80;14.10;;;5.10;99.90;;;;;;5053198;28;20028;-78
2021/05/21 03:53:34;;;;;;;21.60;13.18;;;5.30;99.90;;;;;;5054247;28;20386;-77
2021/05/21 03:56:00;;;;;;;16.88;13.63;;;5.60;99.90;;;;;;5054271;28;20017;-77
2021/05/21 03:58:26;;;;;;;19.40;12.85;;;5.80;99.90;;;;;;5052853;28;20121;-76
2021/05/21 04:00:53;;;;;;;18.23;12.57;;;5.90;99.90;;;;;;5054679;28;20059;-77
2021/05/21 04:03:19;;;;;;;20.42;12.95;;;6.00;99.90;;;;;;5054059;28;20087;-77
2021/05/21 04:05:44;;;;;;;18.90;12.43;;;6.00;99.90;;;;;;5052994;28;20103;-77
2021/05/21 04:08:10;;;;;;;21.80;12.75;;;6.00;99.90;;;;;;5053854;28;20467;-77
2021/05/21 04:10:36;;;;;;;17.77;11.70;;;6.20;99.90;;;;;;5054035;28;20356;-77
2021/05/21 04:13:02;;;;;;;17.42;11.32;;;6.30;99.90;;;;;;5052656;28;20033;-77
2021/05/21 04:15:28;;;;;;;17.42;11.88;;;6.40;99.90;;;;;;5052689;28;20577;-77
2021/05/21 04:17:53;;;;;;;19.45;13.90;;;6.40;99.90;;;;;;5053738;28;20394;-77
2021/05/21 04:20:19;;;;;;;25.30;12.98;;;6.40;99.90;;;;;;5053842;28;20115;-77
2021/05/21 04:22:44;;;;;;;20.15;12.60;;;6.50;99.90;;;;;;5052452;28;20025;-77
2021/05/21 04:25:11;;;;;;;23.35;12.10;;;6.50;99.90;;;;;;5060389;28;20043;-77
2021/05/21 04:27:36;;;;;;;20.25;13.27;;;6.70;99.90;;;;;;5073592;28;20035;-76
2021/05/21 04:30:03;;;;;;;22.02;12.85;;;7.00;99.90;;;;;;5073701;28;20021;-76
2021/05/21 04:32:29;;;;;;;23.70;15.82;;;7.20;99.90;;;;;;5072244;28;20602;-76
2021/05/21 04:34:54;;;;;;;29.45;19.25;;;7.40;99.90;;;;;;5073560;28;20020;-77
2021/05/21 04:37:20;;;;;;;31.58;20.02;;;7.70;99.90;;;;;;5073378;28;20115;-77
2021/05/21 04:39:45;;;;;;;27.13;16.15;;;7.90;99.90;;;;;;5072263;28;20405;-77
2021/05/21 04:42:11;;;;;;;27.85;18.05;;;8.20;99.90;;;;;;5073403;28;20504;-77
2021/05/21 04:44:37;;;;;;;29.25;17.23;;;8.50;99.90;;;;;;5071882;28;20553;-78
2021/05/21 04:47:02;;;;;;;28.75;16.95;;;8.60;99.90;;;;;;5066451;28;20048;-77
2021/05/21 04:49:35;;;;;;;28.60;18.70;;;8.70;99.90;;;;;;5073138;28;20055;-77
2021/05/21 04:52:06;;;;;;;27.48;17.38;;;8.80;99.90;;;;;;5063143;28;20048;-79
2021/05/21 04:54:33;;;;;;;27.67;17.42;;;8.90;99.90;;;;;;5069819;28;20036;-78
2021/05/21 04:56:59;;;;;;;27.50;18.15;;;8.90;99.90;;;;;;5067049;28;20508;-79
2021/05/21 04:59:25;;;;;;;25.20;16.65;;;8.90;99.90;;;;;;5051755;28;20057;-79
2021/05/21 05:01:51;;;;;;;28.42;18.67;;;9.00;99.90;;;;;;5053109;28;20052;-78
2021/05/21 05:04:17;;;;;;;34.20;18.20;;;9.20;99.90;;;;;;5051652;28;20479;-78
2021/05/21 05:06:43;;;;;;;28.95;17.77;;;9.30;99.90;;;;;;5053023;28;20043;-78
2021/05/21 05:09:10;;;;;;;26.40;17.08;;;9.40;99.90;;;;;;5053037;28;20410;-80
2021/05/21 05:11:39;;;;;;;29.17;18.80;;;9.50;99.90;;;;;;5051774;28;20017;-78
2021/05/21 05:14:05;;;;;;;29.52;18.38;;;9.60;99.90;;;;;;5052884;28;20471;-78
2021/05/21 05:16:31;;;;;;;31.55;19.50;;;9.60;99.90;;;;;;5052921;28;20021;-78
2021/05/21 05:18:56;;;;;;;30.00;19.08;;;9.70;99.90;;;;;;5052794;28;20125;-78
2021/05/21 05:21:22;;;;;;;25.98;16.13;;;9.80;99.90;;;;;;5052761;28;20013;-78
2021/05/21 05:23:49;;;;;;;27.70;18.75;;;9.90;99.90;;;;;;5051409;28;20023;-78
2021/05/21 05:26:16;;;;;;;27.40;17.95;;;10.00;99.90;;;;;;5052813;28;20403;-78
2021/05/21 05:28:44;;;;;;;26.63;16.80;;;10.20;99.90;;;;;;5052712;28;20466;-78
2021/05/21 05:31:10;;;;;;;29.13;17.98;;;10.30;99.90;;;;;;5051446;28;20158;-78
2021/05/21 05:33:36;;;;;;;29.33;17.60;;;10.40;99.90;;;;;;5052646;28;20481;-78
2021/05/21 05:36:03;;;;;;;23.35;15.68;;;10.60;99.90;;;;;;5051497;28;20112;-78
2021/05/21 05:38:30;;;;;;;23.33;14.10;;;10.80;99.90;;;;;;5052594;28;20171;-78
2021/05/21 05:40:56;;;;;;;21.48;13.65;;;10.90;99.90;;;;;;5056417;28;20417;-78
2021/05/21 05:43:22;;;;;;;21.02;12.82;;;10.90;99.90;;;;;;5072010;28;20070;-78
2021/05/21 05:45:48;;;;;;;19.88;13.80;;;10.90;99.90;;;;;;5070816;28;20016;-80
2021/05/21 05:48:17;;;;;;;17.63;12.32;;;10.90;98.80;;;;;;5070786;28;20078;-79
2021/05/21 05:50:43;;;;;;;20.55;12.25;;;10.80;98.70;;;;;;5070491;28;20016;-78
2021/05/21 05:53:09;;;;;;;19.85;13.10;;;10.90;99.20;;;;;;5068918;28;20102;-78
2021/05/21 05:55:34;;;;;;;19.80;12.80;;;11.00;99.60;;;;;;5069192;28;20596;-78
2021/05/21 05:58:00;;;;;;;18.63;12.30;;;11.10;99.90;;;;;;5062864;28;20433;-77
2021/05/21 06:00:26;;;;;;;16.55;11.68;;;11.10;98.60;;;;;;5074857;28;20491;-79
2021/05/21 06:02:51;;;;;;;16.00;11.65;;;11.10;99.90;;;;;;5076173;28;20081;-78
2021/05/21 06:05:17;;;;;;;19.80;12.10;;;11.10;99.90;;;;;;5076446;28;20373;-78
2021/05/21 06:07:42;;;;;;;20.67;11.75;;;11.10;98.10;;;;;;5064226;28;20025;-78
2021/05/21 06:10:09;;;;;;;16.70;12.05;;;11.10;99.70;;;;;;5056039;28;20108;-79
2021/05/21 06:12:34;;;;;;;18.20;12.02;;;11.20;99.10;;;;;;5054440;28;20032;-78
2021/05/21 06:15:00;;;;;;;20.30;12.02;;;11.30;98.30;;;;;;5054117;28;20025;-78
2021/05/21 06:17:26;;;;;;;13.77;9.93;;;11.40;99.90;;;;;;5052557;28;20021;-78
2021/05/21 06:19:51;;;;;;;18.92;10.32;;;11.40;98.00;;;;;;5054141;28;20104;-78
2021/05/21 06:22:17;;;;;;;14.45;9.65;;;11.50;98.70;;;;;;5052625;28;20036;-78
2021/05/21 06:24:46;;;;;;;14.90;9.30;;;11.60;98.30;;;;;;5054243;28;20017;-79
2021/05/21 06:27:15;;;;;;;14.18;8.93;;;11.60;96.20;;;;;;5052733;28;20024;-78
2021/05/21 06:29:41;;;;;;;9.15;7.63;;;11.80;94.50;;;;;;5060618;28;20470;-78
2021/05/21 06:32:07;;;;;;;8.90;6.95;;;11.90;90.70;;;;;;5054569;28;20116;-78
2021/05/21 06:34:32;;;;;;;10.48;7.15;;;11.90;88.50;;;;;;5054509;28;20029;-78
2021/05/21 06:36:58;;;;;;;9.13;6.32;;;12.10;90.40;;;;;;5068058;28;20489;-79
2021/05/21 06:39:23;;;;;;;8.65;6.30;;;12.20;87.00;;;;;;5075660;28;20028;-78
2021/05/21 06:41:49;;;;;;;6.45;5.53;;;12.40;86.80;;;;;;5075704;28;20032;-79
2021/05/21 06:44:15;;;;;;;8.38;6.13;;;12.30;83.60;;;;;;5075615;28;20060;-78
2021/05/21 06:46:40;;;;;;;7.45;5.72;;;12.60;83.20;;;;;;5075550;28;20025;-78
2021/05/21 06:49:11;;;;;;;7.88;5.38;;;12.90;82.90;;;;;;5074248;28;20070;-78
2021/05/21 06:51:37;;;;;;;7.18;5.18;;;13.20;79.40;;;;;;5075592;28;20025;-78
2021/05/21 06:54:03;;;;;;;6.57;5.22;;;13.40;78.90;;;;;;5070964;28;20487;-79
2021/05/21 06:56:29;;;;;;;8.10;5.70;;;13.50;74.90;;;;;;5064167;28;20056;-79
2021/05/21 06:58:55;;;;;;;10.27;5.93;;;13.50;74.10;;;;;;5065680;28;20075;-78
2021/05/21 07:01:20;;;;;;;5.95;4.72;;;13.60;75.60;;;;;;5056594;28;20029;-79
2021/05/21 07:03:46;;;;;;;8.00;5.00;;;13.70;74.40;;;;;;5055805;28;20067;-78
2021/05/21 07:06:12;;;;;;;7.40;5.07;;;13.80;76.50;;;;;;5062837;28;20028;-78
2021/05/21 07:08:37;;;;;;;6.88;5.07;;;13.80;74.50;;;;;;5063355;28;20170;-78
2021/05/21 07:11:04;;;;;;;7.45;4.97;;;13.90;72.60;;;;;;5064242;28;20045;-79
2021/05/21 07:13:30;;;;;;;7.50;5.00;;;14.00;72.50;;;;;;5058030;28;20509;-79
2021/05/21 07:15:56;;;;;;;5.95;5.05;;;14.00;72.20;;;;;;5055034;28;20091;-79
2021/05/21 07:18:24;;;;;;;10.75;5.80;;;14.10;71.00;;;;;;5054781;28;20029;-79
2021/05/21 07:20:50;;;;;;;6.43;5.50;;;14.40;70.00;;;;;;5054937;28;20045;-78
2021/05/21 07:23:16;;;;;;;6.70;5.78;;;14.30;68.60;;;;;;5053660;28;20491;-78
2021/05/21 07:25:41;;;;;;;5.97;5.45;;;14.40;68.80;;;;;;5054897;28;20390;-79
2021/05/21 07:28:07;;;;;;;6.72;5.22;;;14.40;67.70;;;;;;5054783;28;20116;-78
2021/05/21 07:30:33;;;;;;;8.13;5.55;;;14.40;69.00;;;;;;5059981;28;20082;-78
2021/05/21 07:32:59;;;;;;;8.15;4.78;;;14.40;68.50;;;;;;5069259;28;20116;-78
2021/05/21 07:35:25;;;;;;;7.85;5.80;;;14.50;68.80;;;;;;5070006;28;20021;-79
2021/05/21 07:37:52;;;;;;;6.30;4.25;;;14.60;66.90;;;;;;5072440;28;20398;-78
2021/05/21 07:40:18;;;;;;;7.18;5.30;;;14.80;66.30;;;;;;5073504;28;20025;-78
2021/05/21 07:42:45;;;;;;;10.55;5.80;;;15.10;66.70;;;;;;5073754;28;20021;-78
2021/05/21 07:45:11;;;;;;;7.22;5.72;;;15.20;65.80;;;;;;5068184;28;20032;-78
2021/05/21 07:47:37;;;;;;;6.20;5.28;;;15.20;64.80;;;;;;5073726;28;20371;-77
2021/05/21 07:50:04;;;;;;;5.93;4.75;;;15.50;67.50;;;;;;5073701;28;20023;-79
2021/05/21 07:52:30;;;;;;;5.55;4.70;;;15.80;64.40;;;;;;5071708;28;20432;-78
2021/05/21 07:54:56;;;;;;;5.30;4.63;;;15.80;60.90;;;;;;5070448;28;20073;-78
2021/05/21 07:57:22;;;;;;;6.95;4.70;;;15.80;62.10;;;;;;5072488;28;20033;-77
2021/05/21 07:59:47;;;;;;;6.63;5.47;;;16.10;64.10;;;;;;5071519;28;20013;-79
2021/05/21 08:02:13;;;;;;;3.63;3.03;;;16.30;62.80;;;;;;5061351;28;20063;-78
2021/05/21 08:04:39;;;;;;;3.50;2.50;;;16.40;59.20;;;;;;5062602;28;20067;-78
2021/05/21 08:07:04;;;;;;;3.20;2.90;;;16.30;57.10;;;;;;5068659;28;20126;-78
2021/05/21 08:09:30;;;;;;;3.90;2.92;;;16.10;57.40;;;;;;5072313;28;20477;-78
2021/05/21 08:11:56;;;;;;;3.85;3.40;;;15.90;57.70;;;;;;5067511;28;20059;-77
2021/05/21 08:14:22;;;;;;;4.97;3.67;;;16.10;59.60;;;;;;5073197;28;20060;-78
2021/05/21 08:16:47;;;;;;;9.02;4.72;;;16.30;60.60;;;;;;5067755;28;20035;-79
2021/05/21 08:19:14;;;;;;;4.47;3.65;;;16.20;57.70;;;;;;5066917;28;20107;-78
2021/05/21 08:21:39;;;;;;;4.13;3.38;;;16.30;59.10;;;;;;5070064;28;20016;-78
2021/05/21 08:24:05;;;;;;;4.15;3.75;;;16.50;60.10;;;;;;5070463;28;20442;-78
2021/05/21 08:26:31;;;;;;;4.43;3.45;;;16.20;57.70;;;;;;5067056;28;20029;-79
2021/05/21 08:28:58;;;;;;;6.32;3.42;;;16.20;58.70;;;;;;5071458;28;20112;-78
2021/05/21 08:31:25;;;;;;;3.42;2.60;;;16.40;58.20;;;;;;5072315;28;20048;-78
2021/05/21 08:33:51;;;;;;;8.60;3.55;;;16.40;57.80;;;;;;5055484;28;20473;-78
2021/05/21 08:36:20;;;;;;;3.85;2.90;;;16.80;57.90;;;;;;5058600;28;20496;-78
2021/05/21 08:38:45;;;;;;;2.30;2.10;;;16.90;56.70;;;;;;5071164;28;20036;-78
2021/05/21 08:41:17;;;;;;;4.03;2.38;;;16.70;55.60;;;;;;5069100;28;20021;-78
2021/05/21 08:43:48;;;;;;;4.53;2.58;;;16.50;54.70;;;;;;5071140;28;20036;-78
2021/05/21 08:46:20;;;;;;;3.30;2.17;;;16.80;56.10;;;;;;5070420;28;20024;-78
2021/05/21 08:48:46;;;;;;;3.25;1.83;;;17.20;57.10;;;;;;5066450;28;20043;-77
2021/05/21 08:51:14;;;;;;;4.07;2.25;;;17.10;56.70;;;;;;5069857;28;20024;-77
2021/05/21 08:53:40;;;;;;;2.95;2.22;;;17.40;55.70;;;;;;5069386;28;20025;-77
2021/05/21 08:56:07;;;;;;;2.35;2.13;;;17.60;54.80;;;;;;5066577;28;20104;-78
2021/05/21 08:58:33;;;;;;;2.58;1.95;;;17.60;55.70;;;;;;5070644;28;20471;-77
2021/05/21 09:00:59;;;;;;;1.50;1.40;;;17.50;53.10;;;;;;5070434;28;20020;-77
2021/05/21 09:03:27;;;;;;;1.67;1.20;;;17.20;51.40;;;;;;5064076;28;20036;-77
2021/05/21 09:06:19;;;;;;;2.72;1.60;;;16.80;52.20;;;;;;5060532;28;20107;-78
2021/05/21 09:08:55;;;;;;;1.27;1.20;;;16.50;53.00;;;;;;5070792;28;20033;-79
2021/05/21 09:11:39;;;;;;;1.25;1.15;;;16.90;53.80;;;;;;5070997;28;20386;-78
2021/05/21 09:14:16;;;;;;;2.55;1.45;;;17.00;51.00;;;;;;5071664;28;20390;-79
2021/05/21 09:16:46;;;;;;;1.10;0.85;;;17.20;52.80;;;;;;5068452;28;20036;-78
2021/05/21 09:19:17;;;;;;;2.13;1.13;;;17.00;50.60;;;;;;5067031;28;20398;-78
2021/05/21 09:21:57;;;;;;;1.90;1.33;;;17.50;52.40;;;;;;5066827;28;20028;-78
2021/05/21 09:24:45;;;;;;;1.48;1.02;;;17.80;50.50;;;;;;5066702;28;20478;-78
2021/05/21 09:27:12;;;;;;;1.70;0.88;;;18.00;50.20;;;;;;5069807;28;20033;-78
2021/05/21 09:29:46;;;;;;;2.92;1.10;;;17.70;48.50;;;;;;5072059;28;20024;-78
2021/05/21 09:32:19;;;;;;;1.98;1.05;;;17.80;49.20;;;;;;5066348;28;20021;-78
2021/05/21 09:34:56;;;;;;;1.88;0.95;;;17.90;49.40;;;;;;5066849;28;20129;-78
2021/05/21 09:37:23;;;;;;;3.20;1.23;;;18.00;48.90;;;;;;5051224;28;20112;-78
2021/05/21 09:40:04;;;;;;;0.88;0.82;;;18.10;49.10;;;;;;5049597;28;20098;-79
2021/05/21 09:42:46;;;;;;;2.25;0.90;;;18.30;49.50;;;;;;5049356;28;20024;-78
2021/05/21 09:45:37;;;;;;;1.03;0.90;;;18.00;46.90;;;;;;5050638;28;20025;-78
2021/05/21 09:48:05;;;;;;;1.67;1.20;;;17.50;46.60;;;;;;5063968;28;20033;-78
2021/05/21 09:50:48;;;;;;;1.38;1.10;;;17.50;48.40;;;;;;5050395;28;20033;-78
2021/05/21 09:53:22;;;;;;;4.38;1.48;;;17.80;49.50;;;;;;5050525;28;20104;-77
2021/05/21 09:56:03;;;;;;;2.85;1.30;;;18.10;49.70;;;;;;5067829;28;20021;-78
2021/05/21 09:58:37;;;;;;;1.30;1.15;;;18.30;48.10;;;;;;5067985;28;20036;-78
2021/05/21 10:01:08;;;;;;;2.30;1.10;;;18.00;47.00;;;;;;5052615;28;20018;-78
2021/05/21 10:03:36;;;;;;;1.47;0.90;;;17.70;46.00;;;;;;5067730;28;20021;-79
2021/05/21 10:06:03;;;;;;;4.30;1.23;;;18.10;48.00;;;;;;5067693;28;20025;-78
2021/05/21 10:08:32;;;;;;;2.65;1.10;;;18.30;48.20;;;;;;5054123;28;20018;-79
2021/05/21 10:10:58;;;;;;;0.98;0.98;;;18.50;46.50;;;;;;5064966;28;20025;-79
2021/05/21 10:13:25;;;;;;;0.90;0.90;;;18.70;45.60;;;;;;5070839;28;20474;-78
2021/05/21 10:15:51;;;;;;;1.35;1.17;;;18.80;46.00;;;;;;5072100;28;20060;-79
2021/05/21 10:18:17;;;;;;;2.60;1.10;;;18.80;47.10;;;;;;5067023;28;20043;-79
2021/05/21 10:20:45;;;;;;;1.70;0.88;;;18.70;45.90;;;;;;5070882;28;20028;-78
2021/05/21 10:23:18;;;;;;;1.83;1.15;;;18.60;45.00;;;;;;5070886;28;20036;-78
2021/05/21 10:25:45;;;;;;;3.92;1.20;;;18.80;44.70;;;;;;5072304;28;20386;-78
2021/05/21 10:28:13;;;;;;;1.23;1.00;;;18.70;44.30;;;;;;5061688;28;20058;-78
2021/05/21 10:30:39;;;;;;;1.65;1.25;;;18.60;45.00;;;;;;5056147;28;20104;-78
2021/05/21 10:33:22;;;;;;;2.95;0.93;;;18.60;45.70;;;;;;5050814;28;20443;-78
2021/05/21 10:35:48;;;;;;;1.15;1.00;;;18.70;44.50;;;;;;5050821;28;20017;-78
2021/05/21 10:38:32;;;;;;;2.33;0.88;;;18.80;43.90;;;;;;5052033;28;20483;-78
2021/05/21 10:41:16;;;;;;;1.45;0.90;;;19.00;44.10;;;;;;5050949;28;20479;-78
2021/05/21 10:43:49;;;;;;;0.75;0.70;;;19.30;42.80;;;;;;5050741;28;20029;-78
2021/05/21 10:46:21;;;;;;;1.60;0.80;;;19.70;42.40;;;;;;5052741;28;20028;-78
2021/05/21 10:49:02;;;;;;;1.30;0.80;;;20.10;41.60;;;;;;5054255;28;20035;-78
2021/05/21 10:51:47;;;;;;;1.05;0.80;;;20.10;41.60;;;;;;5054353;28;20017;-78
2021/05/21 10:54:23;;;;;;;2.15;0.68;;;19.80;41.50;;;;;;5055519;28;20025;-78
2021/05/21 10:56:49;;;;;;;4.72;1.20;;;19.30;41.40;;;;;;5054177;28;20032;-78
2021/05/21 10:59:15;;;;;;;2.00;1.10;;;19.00;41.60;;;;;;5053241;28;20123;-78
2021/05/21 11:01:45;;;;;;;3.10;1.00;;;19.10;43.00;;;;;;5053559;28;20013;-78
2021/05/21 11:04:13;;;;;;;3.45;1.20;;;19.30;44.50;;;;;;5054034;28;20382;-78
2021/05/21 11:06:55;;;;;;;1.00;0.82;;;19.30;43.70;;;;;;5054032;28;20032;-78
2021/05/21 11:09:27;;;;;;;1.70;0.80;;;19.10;42.20;;;;;;5055281;28;20510;-78
2021/05/21 11:12:10;;;;;;;1.00;0.75;;;19.10;42.30;;;;;;5055191;28;20108;-79
2021/05/21 11:14:43;;;;;;;2.47;1.05;;;19.30;42.40;;;;;;5055116;28;20044;-78
2021/05/21 11:17:16;;;;;;;5.63;1.15;;;19.50;42.00;;;;;;5055043;28;20025;-78
2021/05/21 11:19:48;;;;;;;3.10;0.73;;;19.60;41.70;;;;;;5055104;28;20025;-78
2021/05/21 11:22:27;;;;;;;2.28;0.80;;;19.80;40.10;;;;;;5055037;28;20021;-78
2021/05/21 11:25:01;;;;;;;0.77;0.65;;;19.80;39.80;;;;;;5054985;28;20032;-78
2021/05/21 11:27:32;;;;;;;1.77;0.85;;;19.90;40.00;;;;;;5064772;28;20021;-77
2021/05/21 11:30:00;;;;;;;1.08;0.60;;;20.10;40.40;;;;;;5071652;28;20025;-78
2021/05/21 11:32:27;;;;;;;0.70;0.70;;;20.50;40.80;;;;;;5072892;28;20025;-78
2021/05/21 11:34:53;;;;;;;1.17;0.90;;;20.60;40.20;;;;;;5072682;28;20058;-78
2021/05/21 11:37:23;;;;;;;1.58;0.82;;;20.50;40.40;;;;;;5073972;28;20025;-78
2021/05/21 11:39:52;;;;;;;0.40;0.40;;;20.50;39.50;;;;;;5072553;28;20038;-78
2021/05/21 11:42:19;;;;;;;0.75;0.68;;;20.30;39.00;;;;;;5072010;28;20089;-78
2021/05/21 11:44:55;;;;;;;2.25;0.77;;;20.30;38.50;;;;;;5072543;28;20016;-78
2021/05/21 11:47:29;;;;;;;2.17;0.55;;;20.10;38.40;;;;;;5071541;28;20024;-78
2021/05/21 11:49:55;;;;;;;1.80;0.68;;;20.30;38.50;;;;;;5072410;28;20116;-78
2021/05/21 11:52:22;;;;;;;0.68;0.60;;;20.40;39.20;;;;;;5072412;28;20443;-77
2021/05/21 11:54:48;;;;;;;0.75;0.70;;;20.40;38.70;;;;;;5073542;28;20024;-79
2021/05/21 11:57:19;;;;;;;0.77;0.52;;;20.00;37.70;;;;;;5071120;28;20020;-78
2021/05/21 11:59:45;;;;;;;1.50;0.80;;;20.10;38.50;;;;;;5069980;28;20456;-78
2021/05/21 12:02:15;;;;;;;4.90;0.70;;;20.30;39.20;;;;;;5072868;28;20105;-78
2021/05/21 12:04:43;;;;;;;0.55;0.50;;;20.50;39.20;;;;;;5071527;28;20055;-78
2021/05/21 12:07:26;;;;;;;0.85;0.57;;;20.10;37.60;;;;;;5066961;28;20051;-78
2021/05/21 12:09:53;;;;;;;2.45;0.80;;;20.00;38.00;;;;;;5073360;28;20017;-78
2021/05/21 12:12:21;;;;;;;3.58;0.65;;;19.70;38.50;;;;;;5070837;28;20260;-77
2021/05/21 12:14:47;;;;;;;1.00;0.82;;;19.70;39.10;;;;;;5067082;28;20021;-78
2021/05/21 12:17:12;;;;;;;1.60;0.73;;;19.70;39.00;;;;;;5072792;28;20045;-79
2021/05/21 12:19:41;;;;;;;2.38;1.08;;;19.70;39.30;;;;;;5072473;28;20648;-79
2021/05/21 12:22:07;;;;;;;1.70;0.75;;;19.70;39.50;;;;;;5059946;28;20481;-79
2021/05/21 12:24:37;;;;;;;1.20;0.82;;;19.50;39.80;;;;;;5051694;28;20108;-79
2021/05/21 12:27:04;;;;;;;1.95;0.90;;;19.60;39.80;;;;;;5050260;28;20375;-79
2021/05/21 12:29:30;;;;;;;0.70;0.70;;;19.50;40.20;;;;;;5052124;28;20029;-78
2021/05/21 12:31:59;;;;;;;1.20;0.82;;;19.70;41.80;;;;;;5053504;28;20029;-78
2021/05/21 12:34:27;;;;;;;2.08;0.70;;;19.80;41.10;;;;;;5053436;28;20025;-79
2021/05/21 12:37:04;;;;;;;1.00;0.80;;;19.90;40.20;;;;;;5062018;28;20025;-78
2021/05/21 12:39:35;;;;;;;2.25;0.90;;;19.70;39.10;;;;;;5073311;28;20043;-79
2021/05/21 12:42:02;;;;;;;2.08;0.90;;;19.50;39.60;;;;;;5068834;28;20486;-79
2021/05/21 12:44:28;;;;;;;1.25;0.82;;;19.30;40.20;;;;;;5068142;28;20481;-79